createdAt,value
2019-04-04T00:01:55.935Z,5.50
2019-04-04T00:04:23.384Z,5.50
2019-04-04T00:06:50.741Z,5.40
2019-04-04T00:09:17.856Z,5.40
2019-04-04T00:11:44.767Z,5.40
2019-04-04T00:14:13.009Z,5.40
2019-04-04T00:16:41.052Z,5.50
2019-04-04T00:19:08.139Z,5.50
2019-04-04T00:21:35.510Z,5.50
2019-04-04T00:24:02.787Z,5.50
2019-04-04T00:26:29.671Z,5.60
2019-04-04T00:28:56.979Z,5.60
2019-04-04T00:31:24.074Z,5.50
2019-04-04T00:33:51.119Z,5.50
2019-04-04T00:36:18.452Z,5.50
2019-04-04T00:38:45.541Z,5.50
2019-04-04T00:41:13.075Z,5.40
2019-04-04T00:43:40.931Z,5.40
2019-04-04T00:46:08.437Z,5.50
2019-04-04T00:48:35.653Z,5.50
2019-04-04T00:51:03.871Z,5.50
2019-04-04T00:53:31.195Z,5.50
2019-04-04T00:55:58.302Z,5.50
2019-04-04T00:58:25.439Z,5.50
2019-04-04T01:00:52.976Z,5.40
2019-04-04T01:03:21.940Z,5.40
2019-04-04T01:05:49.356Z,5.40
2019-04-04T01:08:16.799Z,5.50
2019-04-04T01:10:43.781Z,5.50
2019-04-04T01:13:10.975Z,5.50
2019-04-04T01:15:41.391Z,5.50
2019-04-04T01:18:08.778Z,5.50
2019-04-04T01:20:36.384Z,5.50
2019-04-04T01:23:03.538Z,5.50
2019-04-04T01:25:32.672Z,5.50
2019-04-04T01:27:59.437Z,5.50
2019-04-04T01:30:26.700Z,5.70
2019-04-04T01:32:54.053Z,5.80
2019-04-04T01:35:22.821Z,5.90
2019-04-04T01:37:50.367Z,5.90
2019-04-04T01:40:17.207Z,6.00
2019-04-04T01:42:47.434Z,5.90
2019-04-04T01:45:14.683Z,5.80
2019-04-04T01:47:41.888Z,5.60
2019-04-04T01:50:12.761Z,5.60
2019-04-04T01:52:39.911Z,5.50
2019-04-04T01:55:07.316Z,5.50
2019-04-04T01:57:34.443Z,5.50
2019-04-04T02:00:01.758Z,5.50
2019-04-04T02:02:29.815Z,5.50
2019-04-04T02:04:57.047Z,5.50
2019-04-04T02:07:24.439Z,5.40
2019-04-04T02:09:52.012Z,5.30
2019-04-04T02:12:18.919Z,5.30
2019-04-04T02:14:46.209Z,5.20
2019-04-04T02:17:13.666Z,5.20
2019-04-04T02:19:44.421Z,5.20
2019-04-04T02:22:11.431Z,5.20
2019-04-04T02:24:38.453Z,5.30
2019-04-04T02:27:06.929Z,5.50
2019-04-04T02:29:34.717Z,5.50
2019-04-04T02:32:05.873Z,5.60
2019-04-04T02:34:37.202Z,5.70
2019-04-04T02:37:02.414Z,5.70
2019-04-04T02:39:29.887Z,5.70
2019-04-04T02:41:57.071Z,5.70
2019-04-04T02:44:24.407Z,5.60
2019-04-04T02:46:51.416Z,5.70
2019-04-04T02:49:18.576Z,5.70
2019-04-04T02:51:45.579Z,5.70
2019-04-04T02:54:12.672Z,5.70
2019-04-04T02:56:39.830Z,5.80
2019-04-04T02:59:08.329Z,5.80
2019-04-04T03:01:35.640Z,5.80
2019-04-04T03:04:02.943Z,5.90
2019-04-04T03:06:30.247Z,5.90
2019-04-04T03:08:57.457Z,6.00
2019-04-04T03:11:24.827Z,6.00
2019-04-04T03:13:52.307Z,5.70
2019-04-04T03:16:21.518Z,5.70
2019-04-04T03:18:49.267Z,5.70
2019-04-04T03:21:17.023Z,5.70
2019-04-04T03:23:44.268Z,5.60
2019-04-04T03:26:11.494Z,5.60
2019-04-04T03:28:39.340Z,5.50
2019-04-04T03:31:06.868Z,5.50
2019-04-04T03:33:33.929Z,5.60
2019-04-04T03:36:04.641Z,5.70
2019-04-04T03:38:31.625Z,5.70
2019-04-04T03:40:58.806Z,5.80
2019-04-04T03:43:25.975Z,5.80
2019-04-04T03:45:53.422Z,5.70
2019-04-04T03:48:20.502Z,5.80
2019-04-04T03:50:47.759Z,5.90
2019-04-04T03:53:17.408Z,5.80
2019-04-04T03:55:45.034Z,5.90
2019-04-04T03:58:12.389Z,5.80
2019-04-04T04:00:40.665Z,5.80
2019-04-04T04:03:07.849Z,5.80
2019-04-04T04:05:40.714Z,5.90
2019-04-04T04:08:07.496Z,5.90
2019-04-04T04:10:34.884Z,5.80
2019-04-04T04:13:02.218Z,5.80
2019-04-04T04:15:30.474Z,5.80
2019-04-04T04:17:57.971Z,5.80
2019-04-04T04:20:25.309Z,5.90
2019-04-04T04:22:52.515Z,5.90
2019-04-04T04:25:19.913Z,5.80
2019-04-04T04:27:48.715Z,5.80
2019-04-04T04:30:16.992Z,5.90
2019-04-04T04:32:44.492Z,6.00
2019-04-04T04:35:12.218Z,6.10
2019-04-04T04:37:39.205Z,6.00
2019-04-04T04:40:06.721Z,6.00
2019-04-04T04:42:33.966Z,6.00
2019-04-04T04:45:01.218Z,6.00
2019-04-04T04:47:28.309Z,6.00
2019-04-04T04:49:55.698Z,6.10
2019-04-04T04:52:22.810Z,6.10
2019-04-04T04:54:54.299Z,6.20
2019-04-04T04:57:29.636Z,6.10
2019-04-04T04:59:49.061Z,6.10
2019-04-04T05:02:16.375Z,6.00
2019-04-04T05:04:43.819Z,6.20
2019-04-04T05:07:11.281Z,6.30
2019-04-04T05:09:38.614Z,6.30
2019-04-04T05:12:05.663Z,6.30
2019-04-04T05:14:32.725Z,6.20
2019-04-04T05:17:00.443Z,6.30
2019-04-04T05:19:27.622Z,6.30
2019-04-04T05:21:55.102Z,6.20
2019-04-04T05:24:22.193Z,6.20
2019-04-04T05:26:49.351Z,6.30
2019-04-04T05:29:16.805Z,6.40
2019-04-04T05:31:44.103Z,6.40
2019-04-04T05:34:11.155Z,6.50
2019-04-04T05:36:38.417Z,6.60
2019-04-04T05:39:06.598Z,6.70
2019-04-04T05:41:33.452Z,6.70
2019-04-04T05:44:00.760Z,6.70
2019-04-04T05:46:28.463Z,6.70
2019-04-04T05:48:55.613Z,6.80
2019-04-04T05:51:22.517Z,6.80
2019-04-04T05:53:49.928Z,6.70
2019-04-04T05:56:17.677Z,6.80
2019-04-04T05:58:44.788Z,6.90
2019-04-04T06:01:13.745Z,7.00
2019-04-04T06:03:40.958Z,7.00
2019-04-04T06:06:10.480Z,7.10
2019-04-04T06:08:42.427Z,7.20
2019-04-04T06:11:06.837Z,7.10
2019-04-04T06:13:33.942Z,7.00
2019-04-04T06:16:02.142Z,7.10
2019-04-04T06:18:30.529Z,7.10
2019-04-04T06:20:57.507Z,7.10
2019-04-04T06:23:25.751Z,7.10
2019-04-04T06:25:52.771Z,7.20
2019-04-04T06:28:19.652Z,7.10
2019-04-04T06:30:47.109Z,6.90
2019-04-04T06:33:14.071Z,6.90
2019-04-04T06:35:41.388Z,7.00
2019-04-04T06:38:08.669Z,6.90
2019-04-04T06:40:35.940Z,6.90
2019-04-04T06:43:04.205Z,6.80
2019-04-04T06:45:32.469Z,6.70
2019-04-04T06:48:00.098Z,6.50
2019-04-04T06:50:27.297Z,6.50
2019-04-04T06:52:56.625Z,6.40
2019-04-04T06:55:24.027Z,6.40
2019-04-04T06:57:51.525Z,6.40
2019-04-04T07:00:18.855Z,6.40
2019-04-04T07:02:47.274Z,6.50
2019-04-04T07:05:14.933Z,6.50
2019-04-04T07:07:43.851Z,6.50
2019-04-04T07:10:11.270Z,6.60
2019-04-04T07:12:38.788Z,6.80
2019-04-04T07:15:09.237Z,6.80
2019-04-04T07:17:39.931Z,6.80
2019-04-04T07:20:06.099Z,6.90
2019-04-04T07:22:33.575Z,6.90
2019-04-04T07:25:01.291Z,7.00
2019-04-04T07:27:29.591Z,6.90
2019-04-04T07:29:56.935Z,6.80
2019-04-04T07:32:24.564Z,6.80
2019-04-04T07:34:52.112Z,6.70
2019-04-04T07:37:21.735Z,6.70
2019-04-04T07:39:50.067Z,6.70
2019-04-04T07:42:17.442Z,6.70
2019-04-04T07:44:44.824Z,6.70
2019-04-04T07:47:11.911Z,6.70
2019-04-04T07:49:40.260Z,6.60
2019-04-04T07:52:07.710Z,6.50
2019-04-04T07:54:38.062Z,6.40
2019-04-04T07:57:03.745Z,6.50
2019-04-04T07:59:31.316Z,6.50
2019-04-04T08:01:58.177Z,6.50
2019-04-04T08:04:25.812Z,6.70
2019-04-04T08:06:53.409Z,6.70
2019-04-04T08:09:20.470Z,6.80
2019-04-04T08:11:47.945Z,6.80
2019-04-04T08:14:14.973Z,6.90
2019-04-04T08:16:42.234Z,6.80
2019-04-04T08:19:09.419Z,6.80
2019-04-04T08:21:36.634Z,6.80
2019-04-04T08:24:04.052Z,6.80
2019-04-04T08:26:31.159Z,6.90
2019-04-04T08:28:58.056Z,6.90
2019-04-04T08:31:25.194Z,6.90
2019-04-04T08:33:52.407Z,7.00
2019-04-04T08:36:19.531Z,7.00
2019-04-04T08:38:46.905Z,7.00
2019-04-04T08:41:14.811Z,6.90
2019-04-04T08:43:42.539Z,7.00
2019-04-04T08:46:09.749Z,6.90
2019-04-04T08:48:36.842Z,6.90
2019-04-04T08:51:04.152Z,6.90
2019-04-04T08:53:39.806Z,6.90
2019-04-04T08:56:00.954Z,6.90
2019-04-04T08:58:28.075Z,7.00
2019-04-04T09:00:55.059Z,7.00
2019-04-04T09:03:21.913Z,7.00
2019-04-04T09:05:49.484Z,7.00
2019-04-04T09:08:17.073Z,7.10
2019-04-04T09:10:44.551Z,7.00
2019-04-04T09:13:11.512Z,7.00
2019-04-04T09:15:41.689Z,7.10
2019-04-04T09:18:08.999Z,7.00
2019-04-04T09:20:36.242Z,6.90
2019-04-04T09:23:03.273Z,6.80
2019-04-04T09:25:30.442Z,6.70
2019-04-04T09:27:57.396Z,6.60
2019-04-04T09:30:24.489Z,6.50
2019-04-04T09:32:51.730Z,6.50
2019-04-04T09:35:18.931Z,6.50
2019-04-04T09:37:46.122Z,6.70
2019-04-04T09:40:13.180Z,6.80
2019-04-04T09:42:40.870Z,6.70
2019-04-04T09:45:08.315Z,6.80
2019-04-04T09:47:35.834Z,6.90
2019-04-04T09:50:03.786Z,6.90
2019-04-04T09:52:30.686Z,7.20
2019-04-04T09:54:58.163Z,7.30
2019-04-04T09:57:25.540Z,7.40
2019-04-04T09:59:52.739Z,7.60
2019-04-04T10:02:20.021Z,7.60
2019-04-04T10:04:47.014Z,7.60
2019-04-04T10:07:15.587Z,7.40
2019-04-04T10:09:42.564Z,7.30
2019-04-04T10:12:09.822Z,7.30
2019-04-04T10:14:36.654Z,7.10
2019-04-04T10:17:04.092Z,7.00
2019-04-04T10:19:31.959Z,7.00
2019-04-04T10:21:58.858Z,7.10
2019-04-04T10:24:26.002Z,7.00
2019-04-04T10:26:53.391Z,7.10
2019-04-04T10:29:20.689Z,7.10
2019-04-04T10:31:48.169Z,7.20
2019-04-04T10:34:15.337Z,7.30
2019-04-04T10:36:42.407Z,7.20
2019-04-04T10:39:11.634Z,7.20
2019-04-04T10:41:38.828Z,7.20
2019-04-04T10:44:06.150Z,7.20
2019-04-04T10:46:33.899Z,7.20
2019-04-04T10:49:01.039Z,7.20
2019-04-04T10:51:28.146Z,7.10
2019-04-04T10:53:55.664Z,7.30
2019-04-04T10:56:22.950Z,7.40
2019-04-04T10:58:53.545Z,7.60
2019-04-04T11:01:20.755Z,7.70
2019-04-04T11:03:48.231Z,7.60
2019-04-04T11:06:15.611Z,7.60
2019-04-04T11:08:42.857Z,7.60
2019-04-04T11:11:10.162Z,7.60
2019-04-04T11:13:37.652Z,7.40
2019-04-04T11:16:04.684Z,7.40
2019-04-04T11:18:31.917Z,7.30
2019-04-04T11:20:59.487Z,7.20
2019-04-04T11:23:26.315Z,7.20
2019-04-04T11:25:53.717Z,7.30
2019-04-04T11:28:21.046Z,7.40
2019-04-04T11:30:48.120Z,7.30
2019-04-04T11:33:15.297Z,7.30
2019-04-04T11:35:42.239Z,7.50
2019-04-04T11:38:09.666Z,7.30
2019-04-04T11:40:36.513Z,7.30
2019-04-04T11:43:03.894Z,7.40
2019-04-04T11:45:31.414Z,7.40
2019-04-04T11:47:58.433Z,7.50
2019-04-04T11:50:26.141Z,7.60
2019-04-04T11:52:54.310Z,7.50
2019-04-04T11:55:21.661Z,7.40
2019-04-04T11:57:48.912Z,7.20
2019-04-04T12:00:22.448Z,7.10
2019-04-04T12:02:49.657Z,7.10
2019-04-04T12:05:17.167Z,7.10
2019-04-04T12:07:44.088Z,7.10
2019-04-04T12:10:11.901Z,7.30
2019-04-04T12:12:38.764Z,7.40
2019-04-04T12:15:05.955Z,7.50
2019-04-04T12:17:33.708Z,7.70
2019-04-04T12:20:01.003Z,7.60
2019-04-04T12:22:28.087Z,7.70
2019-04-04T12:24:55.662Z,7.80
2019-04-04T12:27:22.719Z,8.00
2019-04-04T12:29:49.775Z,8.00
2019-04-04T12:32:16.855Z,7.80
2019-04-04T12:34:44.238Z,7.70
2019-04-04T12:37:11.463Z,7.80
2019-04-04T12:39:38.282Z,7.80
2019-04-04T12:42:05.559Z,7.60
2019-04-04T12:44:33.896Z,7.60
2019-04-04T12:47:01.798Z,7.40
2019-04-04T12:49:28.983Z,7.30
2019-04-04T12:51:56.338Z,7.20
2019-04-04T12:54:23.169Z,7.10
2019-04-04T12:56:50.419Z,7.10
2019-04-04T12:59:17.882Z,6.90
2019-04-04T13:01:46.182Z,7.00
2019-04-04T13:04:13.537Z,6.80
2019-04-04T13:06:40.889Z,6.80
2019-04-04T13:09:08.470Z,6.80
2019-04-04T13:11:35.965Z,7.10
2019-04-04T13:14:03.395Z,7.20
2019-04-04T13:16:30.823Z,7.30
2019-04-04T13:18:57.835Z,7.30
2019-04-04T13:21:25.525Z,7.10
2019-04-04T13:23:52.387Z,7.20
2019-04-04T13:26:19.289Z,7.10
2019-04-04T13:28:46.193Z,7.10
2019-04-04T13:31:13.659Z,7.20
2019-04-04T13:33:41.225Z,7.10
2019-04-04T13:36:08.627Z,7.20
2019-04-04T13:38:35.540Z,7.30
2019-04-04T13:41:03.061Z,7.40
2019-04-04T13:43:30.364Z,7.30
2019-04-04T13:45:57.447Z,7.40
2019-04-04T13:48:24.895Z,7.70
2019-04-04T13:50:52.196Z,7.60
2019-04-04T13:53:20.784Z,7.40
2019-04-04T13:55:48.385Z,7.40
2019-04-04T13:58:17.543Z,7.30
2019-04-04T14:00:45.000Z,7.20
2019-04-04T14:03:12.097Z,7.30
2019-04-04T14:05:39.202Z,7.30
2019-04-04T14:08:06.785Z,7.50
2019-04-04T14:10:37.466Z,7.40
2019-04-04T14:13:04.703Z,7.50
2019-04-04T14:15:31.908Z,7.60
2019-04-04T14:17:59.324Z,7.60
2019-04-04T14:20:26.426Z,7.60
2019-04-04T14:22:53.554Z,7.60
2019-04-04T14:25:20.661Z,7.70
2019-04-04T14:27:48.010Z,7.80
2019-04-04T14:30:15.516Z,7.80
2019-04-04T14:32:43.202Z,7.90
2019-04-04T14:35:10.583Z,8.10
2019-04-04T14:37:37.467Z,8.10
2019-04-04T14:40:04.852Z,8.30
2019-04-04T14:42:32.100Z,8.50
2019-04-04T14:45:02.196Z,8.70
2019-04-04T14:47:29.313Z,9.20
2019-04-04T14:49:56.802Z,9.40
2019-04-04T14:52:24.342Z,9.80
2019-04-04T14:54:52.082Z,10.00
2019-04-04T14:57:19.610Z,10.00
2019-04-04T14:59:46.623Z,10.10
2019-04-04T15:02:13.572Z,10.00
2019-04-04T15:04:41.148Z,10.00
2019-04-04T15:07:08.856Z,9.80
2019-04-04T15:09:35.990Z,9.70
2019-04-04T15:12:03.342Z,9.40
2019-04-04T15:14:30.898Z,9.20
2019-04-04T15:16:58.318Z,9.20
2019-04-04T15:19:25.734Z,9.10
2019-04-04T15:21:52.837Z,8.80
2019-04-04T15:24:19.748Z,8.50
2019-04-04T15:26:47.166Z,8.50
2019-04-04T15:29:14.061Z,8.30
2019-04-04T15:31:41.268Z,8.20
2019-04-04T15:34:08.484Z,8.00
2019-04-04T15:36:35.749Z,7.90
2019-04-04T15:39:05.100Z,7.80
2019-04-04T15:41:37.168Z,7.80
2019-04-04T15:44:02.502Z,7.60
2019-04-04T15:46:30.123Z,7.60
2019-04-04T15:48:58.047Z,7.50
2019-04-04T15:51:25.308Z,7.40
2019-04-04T15:53:52.379Z,7.50
2019-04-04T15:56:19.815Z,7.40
2019-04-04T15:58:47.333Z,7.40
2019-04-04T16:01:14.683Z,7.40
2019-04-04T16:03:42.204Z,7.50
2019-04-04T16:06:09.684Z,7.50
2019-04-04T16:08:37.620Z,7.60
2019-04-04T16:11:05.045Z,7.60
2019-04-04T16:13:32.914Z,7.60
2019-04-04T16:16:00.533Z,7.50
2019-04-04T16:18:27.678Z,7.50
2019-04-04T16:20:55.396Z,7.50
2019-04-04T16:23:22.612Z,7.40
2019-04-04T16:25:49.626Z,7.40
2019-04-04T16:28:16.777Z,7.50
2019-04-04T16:30:44.695Z,7.60
2019-04-04T16:33:11.850Z,7.90
2019-04-04T16:35:38.954Z,8.20
2019-04-04T16:38:07.435Z,8.60
2019-04-04T16:40:34.850Z,8.70
2019-04-04T16:43:01.927Z,8.70
2019-04-04T16:45:29.508Z,8.90
2019-04-04T16:47:56.971Z,8.90
2019-04-04T16:50:24.498Z,8.90
2019-04-04T16:52:51.865Z,8.70
2019-04-04T16:55:19.654Z,8.70
2019-04-04T16:57:48.589Z,8.60
2019-04-04T17:00:20.947Z,8.30
2019-04-04T17:02:47.465Z,8.20
2019-04-04T17:05:14.852Z,8.20
2019-04-04T17:07:42.173Z,8.20
2019-04-04T17:10:11.164Z,8.30
2019-04-04T17:12:38.395Z,8.40
2019-04-04T17:15:06.305Z,8.30
2019-04-04T17:17:33.828Z,8.40
2019-04-04T17:20:01.226Z,8.40
2019-04-04T17:22:29.313Z,8.50
2019-04-04T17:24:56.761Z,8.40
2019-04-04T17:27:23.858Z,8.30
2019-04-04T17:29:51.342Z,8.20
2019-04-04T17:32:18.330Z,8.20
2019-04-04T17:34:45.668Z,8.10
2019-04-04T17:37:15.359Z,8.00
2019-04-04T17:39:42.711Z,8.00
2019-04-04T17:42:09.817Z,7.90
2019-04-04T17:44:37.445Z,7.90
2019-04-04T17:47:04.713Z,7.90
2019-04-04T17:49:32.735Z,7.90
2019-04-04T17:52:00.705Z,7.90
2019-04-04T17:54:28.233Z,7.90
2019-04-04T17:56:56.020Z,7.90
2019-04-04T17:59:23.337Z,7.80
2019-04-04T18:01:51.029Z,7.70
2019-04-04T18:04:18.223Z,7.70
2019-04-04T18:06:46.076Z,7.70
2019-04-04T18:09:13.414Z,7.70
2019-04-04T18:11:41.037Z,7.70
2019-04-04T18:14:08.297Z,7.70
2019-04-04T18:16:35.619Z,7.70
2019-04-04T18:19:02.786Z,7.70
2019-04-04T18:21:30.310Z,7.80
2019-04-04T18:23:57.831Z,7.80
2019-04-04T18:26:25.312Z,7.90
2019-04-04T18:28:52.863Z,7.90
2019-04-04T18:31:20.359Z,7.90
2019-04-04T18:33:47.647Z,7.90
2019-04-04T18:36:15.297Z,7.90
2019-04-04T18:38:42.498Z,7.90
2019-04-04T18:41:10.035Z,7.90
2019-04-04T18:43:37.135Z,7.80
2019-04-04T18:46:08.195Z,7.80
2019-04-04T18:48:35.467Z,7.80
2019-04-04T18:51:02.596Z,7.70
2019-04-04T18:53:29.855Z,7.70
2019-04-04T18:56:00.294Z,7.60
2019-04-04T18:58:27.754Z,7.60
2019-04-04T19:00:54.990Z,7.70
2019-04-04T19:03:22.309Z,7.60
2019-04-04T19:05:49.711Z,7.50
2019-04-04T19:08:17.236Z,7.50
2019-04-04T19:10:44.793Z,7.50
2019-04-04T19:13:12.369Z,7.50
2019-04-04T19:15:40.338Z,7.40
2019-04-04T19:18:08.249Z,7.50
2019-04-04T19:20:35.667Z,7.40
2019-04-04T19:23:02.853Z,7.40
2019-04-04T19:25:30.084Z,7.30
2019-04-04T19:27:57.403Z,7.30
2019-04-04T19:30:24.993Z,7.30
2019-04-04T19:32:55.764Z,7.40
2019-04-04T19:35:22.759Z,7.40
2019-04-04T19:38:00.121Z,7.40
2019-04-04T19:40:20.252Z,7.30
2019-04-04T19:42:47.858Z,7.20
2019-04-04T19:45:15.952Z,7.10
2019-04-04T19:47:43.405Z,7.10
2019-04-04T19:50:11.339Z,7.10
2019-04-04T19:52:38.553Z,7.00
2019-04-04T19:55:06.193Z,7.00
2019-04-04T19:57:33.623Z,7.00
2019-04-04T20:00:00.574Z,6.90
2019-04-04T20:02:27.529Z,6.80
2019-04-04T20:04:55.118Z,6.80
2019-04-04T20:07:22.538Z,6.70
2019-04-04T20:09:50.190Z,6.60
2019-04-04T20:12:17.765Z,6.70
2019-04-04T20:14:45.013Z,6.70
2019-04-04T20:17:12.413Z,6.80
2019-04-04T20:19:39.812Z,6.80
2019-04-04T20:22:07.042Z,6.70
2019-04-04T20:24:34.250Z,6.70
2019-04-04T20:27:05.051Z,6.70
2019-04-04T20:29:32.429Z,6.80
2019-04-04T20:31:59.976Z,6.80
2019-04-04T20:34:26.923Z,6.80
2019-04-04T20:36:54.141Z,6.70
2019-04-04T20:39:21.489Z,6.80
2019-04-04T20:41:48.506Z,6.80
2019-04-04T20:44:15.620Z,6.80
2019-04-04T20:46:43.329Z,6.80
2019-04-04T20:49:10.328Z,6.80
2019-04-04T20:51:37.451Z,6.80
2019-04-04T20:54:04.822Z,6.80
2019-04-04T20:56:32.493Z,6.70
2019-04-04T20:58:59.516Z,6.80
2019-04-04T21:01:26.979Z,6.80
2019-04-04T21:03:54.459Z,6.70
2019-04-04T21:06:21.635Z,6.70
2019-04-04T21:08:49.017Z,6.70
2019-04-04T21:11:16.092Z,6.70
2019-04-04T21:13:55.241Z,6.60
2019-04-04T21:16:12.375Z,6.70
2019-04-04T21:18:42.995Z,6.70
2019-04-04T21:21:10.528Z,6.70
2019-04-04T21:23:37.808Z,6.80
2019-04-04T21:26:05.167Z,6.80
2019-04-04T21:28:32.257Z,6.80
2019-04-04T21:30:59.495Z,6.80
2019-04-04T21:33:26.848Z,6.70
2019-04-04T21:35:54.175Z,6.60
2019-04-04T21:38:21.450Z,6.60
2019-04-04T21:40:48.886Z,6.60
2019-04-04T21:43:15.990Z,6.70
2019-04-04T21:45:43.179Z,6.60
2019-04-04T21:48:10.551Z,6.50
2019-04-04T21:50:38.375Z,6.40
2019-04-04T21:53:06.245Z,6.20
2019-04-04T21:55:33.556Z,6.20
2019-04-04T21:58:00.892Z,6.10
2019-04-04T22:00:41.133Z,6.10
2019-04-04T22:03:08.885Z,6.20
2019-04-04T22:05:36.987Z,6.20
2019-04-04T22:08:04.649Z,6.10
2019-04-04T22:10:32.123Z,6.10
2019-04-04T22:12:59.116Z,6.10
2019-04-04T22:15:26.599Z,6.10
2019-04-04T22:17:53.661Z,6.10
2019-04-04T22:20:21.154Z,6.10
2019-04-04T22:22:48.724Z,6.10
2019-04-04T22:25:16.426Z,6.10
2019-04-04T22:27:43.480Z,6.10
2019-04-04T22:30:11.294Z,6.10
2019-04-04T22:32:38.462Z,6.20
2019-04-04T22:35:06.295Z,6.20
2019-04-04T22:37:33.780Z,6.20
2019-04-04T22:40:02.039Z,6.20
2019-04-04T22:42:29.745Z,6.10
2019-04-04T22:44:57.012Z,6.20
2019-04-04T22:47:24.208Z,6.10
2019-04-04T22:49:52.889Z,6.10
2019-04-04T22:52:20.127Z,6.20
2019-04-04T22:54:48.003Z,6.20
2019-04-04T22:57:15.294Z,6.20
2019-04-04T22:59:42.391Z,6.20
2019-04-04T23:02:09.340Z,6.20
2019-04-04T23:04:36.526Z,6.20
2019-04-04T23:07:04.125Z,6.30
2019-04-04T23:09:30.339Z,6.40
2019-04-04T23:11:57.664Z,6.40
2019-04-04T23:14:24.654Z,6.30
2019-04-04T23:16:52.226Z,6.30
2019-04-04T23:19:19.336Z,6.30
2019-04-04T23:21:46.531Z,6.40
2019-04-04T23:24:13.723Z,6.50
2019-04-04T23:26:41.002Z,6.40
2019-04-04T23:29:08.024Z,6.40
2019-04-04T23:31:36.222Z,6.30
2019-04-04T23:34:03.399Z,6.30
2019-04-04T23:36:35.172Z,6.20
2019-04-04T23:39:00.398Z,6.20
2019-04-04T23:41:27.267Z,6.00
2019-04-04T23:43:54.844Z,5.90
2019-04-04T23:46:22.173Z,5.90
2019-04-04T23:48:49.473Z,6.00
2019-04-04T23:51:17.371Z,5.90
2019-04-04T23:53:44.745Z,5.90
2019-04-04T23:56:12.115Z,5.90
2019-04-04T23:58:39.590Z,5.90
